createdAt,value
2022-12-24T00:02:11.962Z,14.73
2022-12-24T00:04:39.422Z,10.70
2022-12-24T00:07:06.952Z,9.63
2022-12-24T00:09:34.426Z,10.20
2022-12-24T00:12:01.896Z,10.00
2022-12-24T00:14:29.403Z,11.73
2022-12-24T00:16:57.046Z,17.87
2022-12-24T00:19:24.628Z,15.67
2022-12-24T00:21:52.024Z,12.73
2022-12-24T00:24:19.420Z,10.30
2022-12-24T00:26:46.932Z,10.27
2022-12-24T00:29:14.498Z,9.50
2022-12-24T00:31:42.285Z,9.03
2022-12-24T00:34:09.748Z,10.43
2022-12-24T00:36:37.347Z,10.20
2022-12-24T00:39:04.828Z,10.57
2022-12-24T00:41:32.318Z,8.70
2022-12-24T00:44:01.419Z,9.97
2022-12-24T00:46:29.899Z,11.50
2022-12-24T00:48:57.892Z,12.97
2022-12-24T00:51:25.937Z,13.77
2022-12-24T00:53:53.823Z,14.37
2022-12-24T00:56:21.430Z,14.37
2022-12-24T00:58:48.892Z,15.87
2022-12-24T01:01:16.944Z,15.33
2022-12-24T01:03:44.501Z,14.47
2022-12-24T01:06:14.660Z,15.20
2022-12-24T01:08:42.204Z,13.57
2022-12-24T01:11:10.366Z,11.83
2022-12-24T01:13:38.376Z,12.07
2022-12-24T01:16:14.177Z,13.30
2022-12-24T01:18:41.718Z,13.60
2022-12-24T01:21:09.185Z,13.90
2022-12-24T01:23:36.679Z,11.97
2022-12-24T01:26:04.940Z,11.73
2022-12-24T01:28:33.448Z,12.30
2022-12-24T01:31:00.998Z,11.70
2022-12-24T01:33:30.298Z,11.00
2022-12-24T01:35:57.788Z,10.83
2022-12-24T01:38:27.948Z,10.00
2022-12-24T01:41:15.306Z,9.63
2022-12-24T01:43:42.803Z,8.93
2022-12-24T01:46:21.137Z,9.67
2022-12-24T01:48:52.608Z,9.07
2022-12-24T01:51:24.330Z,10.77
2022-12-24T01:53:55.585Z,10.60
2022-12-24T01:56:23.245Z,9.53
2022-12-24T01:58:55.178Z,10.23
2022-12-24T02:01:22.978Z,8.50
2022-12-24T02:03:52.539Z,8.77
2022-12-24T02:06:22.106Z,9.37
2022-12-24T02:08:49.573Z,10.90
2022-12-24T02:11:18.261Z,15.43
2022-12-24T02:13:48.962Z,16.83
2022-12-24T02:16:26.959Z,17.40
2022-12-24T02:19:16.232Z,17.70
2022-12-24T02:22:03.553Z,18.77
2022-12-24T02:24:41.633Z,23.23
2022-12-24T02:27:28.888Z,25.10
2022-12-24T02:30:00.963Z,26.63
2022-12-24T02:32:48.283Z,23.50
2022-12-24T02:35:19.712Z,20.30
2022-12-24T02:37:51.275Z,20.30
2022-12-24T02:40:20.950Z,20.37
2022-12-24T02:42:51.454Z,20.27
2022-12-24T02:45:21.351Z,18.87
2022-12-24T02:47:49.783Z,17.97
2022-12-24T02:50:18.103Z,19.27
2022-12-24T02:52:46.891Z,17.70
2022-12-24T02:55:34.171Z,18.67
2022-12-24T02:58:07.580Z,19.33
2022-12-24T03:00:55.016Z,19.40
2022-12-24T03:03:40.965Z,21.20
2022-12-24T03:06:13.435Z,22.67
2022-12-24T03:08:46.208Z,22.50
2022-12-24T03:11:15.500Z,15.50
2022-12-24T03:13:44.005Z,13.73
2022-12-24T03:16:13.127Z,10.20
2022-12-24T03:18:45.226Z,9.53
2022-12-24T03:21:25.600Z,5.90
2022-12-24T03:23:52.967Z,3.57
2022-12-24T03:26:21.232Z,3.80
2022-12-24T03:28:49.213Z,3.30
2022-12-24T03:31:17.133Z,3.30
2022-12-24T03:33:44.656Z,3.73
2022-12-24T03:36:12.553Z,4.10
2022-12-24T03:38:42.422Z,3.23
2022-12-24T03:41:09.818Z,2.60
2022-12-24T03:43:39.369Z,2.60
2022-12-24T03:46:08.348Z,2.37
2022-12-24T03:48:38.150Z,2.77
2022-12-24T03:51:07.849Z,2.30
2022-12-24T03:53:35.254Z,2.40
2022-12-24T03:56:02.690Z,2.33
2022-12-24T03:58:32.295Z,2.80
2022-12-24T04:01:04.318Z,2.37
2022-12-24T04:03:32.378Z,2.80
2022-12-24T04:06:08.488Z,3.40
2022-12-24T04:08:36.025Z,4.37
2022-12-24T04:11:09.652Z,5.63
2022-12-24T04:13:38.054Z,4.63
2022-12-24T04:16:07.517Z,3.70
2022-12-24T04:18:35.095Z,4.23
2022-12-24T04:21:03.064Z,4.80
2022-12-24T04:23:32.981Z,3.40
2022-12-24T04:26:00.920Z,3.40
2022-12-24T04:28:29.991Z,2.90
2022-12-24T04:31:01.482Z,2.97
2022-12-24T04:33:28.879Z,4.27
2022-12-24T04:35:58.494Z,4.20
2022-12-24T04:38:28.188Z,3.70
2022-12-24T04:41:06.055Z,3.37
2022-12-24T04:43:35.875Z,3.33
2022-12-24T04:46:08.042Z,2.60
2022-12-24T04:48:35.659Z,2.57
2022-12-24T04:51:07.937Z,2.70
2022-12-24T04:53:35.865Z,2.50
2022-12-24T04:56:03.477Z,8.97
2022-12-24T04:58:31.609Z,9.63
2022-12-24T05:01:06.947Z,17.20
2022-12-24T05:06:02.753Z,10.40
2022-12-24T05:08:30.276Z,8.60
2022-12-24T05:10:58.580Z,5.70
2022-12-24T05:13:34.257Z,4.57
2022-12-24T05:16:06.156Z,5.23
2022-12-24T05:18:35.312Z,7.83
2022-12-24T05:21:02.787Z,8.63
2022-12-24T05:23:50.828Z,11.00
2022-12-24T05:26:30.951Z,10.43
2022-12-24T05:28:59.317Z,20.37
2022-12-24T05:31:27.814Z,20.30
2022-12-24T05:33:55.844Z,10.23
2022-12-24T05:36:24.087Z,8.33
2022-12-24T05:38:51.913Z,6.30
2022-12-24T05:41:19.405Z,5.03
2022-12-24T05:43:47.043Z,6.10
2022-12-24T05:46:19.126Z,6.63
2022-12-24T05:48:47.131Z,7.82
2022-12-24T05:51:14.957Z,7.63
2022-12-24T05:53:42.386Z,8.30
2022-12-24T05:56:12.280Z,7.55
2022-12-24T05:58:40.198Z,7.43
2022-12-24T06:01:08.085Z,7.80
2022-12-24T06:03:38.083Z,7.03
2022-12-24T06:06:25.323Z,6.30
2022-12-24T06:08:53.248Z,7.15
2022-12-24T06:11:22.141Z,8.50
2022-12-24T06:13:49.868Z,9.70
2022-12-24T06:16:18.785Z,11.35
2022-12-24T06:18:46.320Z,8.65
2022-12-24T06:21:14.082Z,9.35
2022-12-24T06:23:45.159Z,6.73
2022-12-24T06:26:13.390Z,7.10
2022-12-24T06:28:43.026Z,6.22
2022-12-24T06:31:12.765Z,5.40
2022-12-24T06:33:40.220Z,5.60
2022-12-24T06:36:14.948Z,4.80
2022-12-24T06:38:44.540Z,7.53
2022-12-24T06:41:11.986Z,9.63
2022-12-24T06:43:39.558Z,8.93
2022-12-24T06:46:07.139Z,8.47
2022-12-24T06:48:34.543Z,8.20
2022-12-24T06:51:03.832Z,10.77
2022-12-24T06:53:33.394Z,14.30
2022-12-24T06:56:20.764Z,13.97
2022-12-24T06:58:48.358Z,13.37
2022-12-24T07:01:16.681Z,15.18
2022-12-24T07:03:44.521Z,14.15
2022-12-24T07:06:22.280Z,13.93
2022-12-24T07:08:49.771Z,20.30
2022-12-24T07:11:17.787Z,21.40
2022-12-24T07:13:45.351Z,19.63
2022-12-24T07:16:12.835Z,22.77
2022-12-24T07:18:40.233Z,27.13
2022-12-24T07:21:07.807Z,28.17
2022-12-24T07:23:35.750Z,26.13
2022-12-24T07:26:04.449Z,22.08
2022-12-24T07:28:32.124Z,19.97
2022-12-24T07:31:00.338Z,19.98
2022-12-24T07:33:28.033Z,17.50
2022-12-24T07:36:03.879Z,16.43
2022-12-24T07:38:36.225Z,15.13
2022-12-24T07:41:03.788Z,15.88
2022-12-24T07:43:31.416Z,13.68
2022-12-24T07:45:59.010Z,14.07
2022-12-24T07:48:27.367Z,15.13
2022-12-24T07:50:57.617Z,14.52
2022-12-24T07:53:26.116Z,14.13
2022-12-24T07:55:54.026Z,12.10
2022-12-24T07:58:21.687Z,11.03
2022-12-24T08:00:51.682Z,10.47
2022-12-24T08:03:19.651Z,10.27
2022-12-24T08:05:47.605Z,8.87
2022-12-24T08:08:15.221Z,9.87
2022-12-24T08:10:43.592Z,9.67
2022-12-24T08:13:11.022Z,8.87
2022-12-24T08:15:39.541Z,7.97
2022-12-24T08:18:07.042Z,7.63
2022-12-24T08:20:34.611Z,7.03
2022-12-24T08:23:02.081Z,4.90
2022-12-24T08:25:29.491Z,6.13
2022-12-24T08:27:58.058Z,4.37
2022-12-24T08:30:25.749Z,3.60
2022-12-24T08:32:55.156Z,3.20
2022-12-24T08:35:27.871Z,3.17
2022-12-24T08:37:55.734Z,3.10
2022-12-24T08:40:23.429Z,2.70
2022-12-24T08:42:51.013Z,2.80
2022-12-24T08:45:18.620Z,2.70
2022-12-24T08:47:46.308Z,3.00
2022-12-24T08:50:16.134Z,2.70
2022-12-24T08:52:43.625Z,2.87
2022-12-24T08:55:11.105Z,3.73
2022-12-24T08:57:40.700Z,3.73
2022-12-24T09:00:16.938Z,4.17
2022-12-24T09:02:45.972Z,3.57
2022-12-24T09:05:13.621Z,3.57
2022-12-24T09:07:41.178Z,7.40
2022-12-24T09:10:09.275Z,9.63
2022-12-24T09:12:36.691Z,10.20
2022-12-24T09:15:04.635Z,10.33
2022-12-24T09:17:32.426Z,8.57
2022-12-24T09:19:59.894Z,7.60
2022-12-24T09:22:27.345Z,5.47
2022-12-24T09:24:55.298Z,7.93
2022-12-24T09:27:22.824Z,6.90
2022-12-24T09:29:50.375Z,5.67
2022-12-24T09:32:17.856Z,4.87
2022-12-24T09:34:45.584Z,5.07
2022-12-24T09:37:13.246Z,4.00
2022-12-24T09:39:40.650Z,4.47
2022-12-24T09:42:27.891Z,4.23
2022-12-24T09:44:59.615Z,3.70
2022-12-24T09:47:44.993Z,3.60
2022-12-24T09:50:25.679Z,3.63
2022-12-24T09:52:53.518Z,3.63
2022-12-24T09:55:40.737Z,4.10
2022-12-24T09:58:17.873Z,3.10
2022-12-24T10:00:49.892Z,2.80
2022-12-24T10:03:17.949Z,2.77
2022-12-24T10:05:57.521Z,2.33
2022-12-24T10:08:31.207Z,3.10
2022-12-24T10:11:08.651Z,2.70
2022-12-24T10:13:45.023Z,3.13
2022-12-24T10:16:21.219Z,3.03
2022-12-24T10:19:08.570Z,2.93
2022-12-24T10:21:49.183Z,2.50
2022-12-24T10:24:22.255Z,2.10
2022-12-24T10:26:54.057Z,1.63
2022-12-24T10:29:27.171Z,1.50
2022-12-24T10:32:17.474Z,1.63
2022-12-24T10:34:46.924Z,3.00
2022-12-24T10:37:16.534Z,2.87
2022-12-24T10:39:44.251Z,2.03
2022-12-24T10:42:12.516Z,3.67
2022-12-24T10:44:42.362Z,2.43
2022-12-24T10:47:10.555Z,2.40
2022-12-24T10:50:14.536Z,1.83
2022-12-24T10:52:44.041Z,1.90
2022-12-24T10:55:31.437Z,1.80
2022-12-24T10:58:03.214Z,2.50
2022-12-24T11:00:35.837Z,2.97
2022-12-24T11:03:08.935Z,2.10
2022-12-24T11:05:37.533Z,2.00
2022-12-24T11:08:08.408Z,1.70
2022-12-24T11:10:37.911Z,1.90
2022-12-24T11:13:36.406Z,1.90
2022-12-24T11:16:15.220Z,2.07
2022-12-24T11:18:52.265Z,1.90
2022-12-24T11:21:24.633Z,1.60
2022-12-24T11:23:54.595Z,1.80
2022-12-24T11:26:23.060Z,2.10
2022-12-24T11:29:10.380Z,2.07
2022-12-24T11:31:38.046Z,1.40
2022-12-24T11:34:25.375Z,1.30
2022-12-24T11:36:54.039Z,1.23
2022-12-24T11:39:22.657Z,2.03
2022-12-24T11:41:51.922Z,1.70
2022-12-24T11:44:25.085Z,1.10
2022-12-24T11:46:56.862Z,1.17
2022-12-24T11:49:44.345Z,1.50
2022-12-24T11:52:31.828Z,1.70
2022-12-24T11:55:08.928Z,1.80
2022-12-24T11:57:44.780Z,2.10
2022-12-24T12:00:12.846Z,1.70
2022-12-24T12:02:43.451Z,1.20
2022-12-24T12:05:13.925Z,1.87
2022-12-24T12:07:41.588Z,1.40
2022-12-24T12:10:31.288Z,1.40
2022-12-24T12:13:06.395Z,1.90
2022-12-24T12:15:42.614Z,2.40
2022-12-24T12:18:12.532Z,2.00
2022-12-24T12:20:44.559Z,2.40
2022-12-24T12:23:31.934Z,2.30
2022-12-24T12:26:19.302Z,1.60
2022-12-24T12:29:07.097Z,2.17
2022-12-24T12:31:37.765Z,1.97
2022-12-24T12:34:24.963Z,1.93
2022-12-24T12:36:58.194Z,1.60
2022-12-24T12:39:25.633Z,1.50
2022-12-24T12:42:10.703Z,2.00
2022-12-24T12:44:58.044Z,1.58
2022-12-24T12:47:49.725Z,1.93
2022-12-24T12:50:37.072Z,1.90
2022-12-24T12:53:12.015Z,1.50
2022-12-24T12:55:59.292Z,1.38
2022-12-24T12:58:29.170Z,1.33
2022-12-24T13:01:00.429Z,1.80
2022-12-24T13:03:47.727Z,2.50
2022-12-24T13:06:34.948Z,2.40
2022-12-24T13:09:22.225Z,2.60
2022-12-24T13:12:09.539Z,2.43
2022-12-24T13:14:56.793Z,2.30
2022-12-24T13:17:44.228Z,3.10
2022-12-24T13:20:15.859Z,2.83
2022-12-24T13:22:49.392Z,4.17
2022-12-24T13:25:27.430Z,4.17
2022-12-24T13:27:54.917Z,3.30
2022-12-24T13:30:42.196Z,3.60
2022-12-24T13:33:11.468Z,4.20
2022-12-24T13:35:39.781Z,6.20
2022-12-24T13:38:27.104Z,5.40
2022-12-24T13:40:56.852Z,4.87
2022-12-24T13:43:24.344Z,4.83
2022-12-24T13:45:57.851Z,4.83
2022-12-24T13:48:33.816Z,4.30
2022-12-24T13:51:18.387Z,4.27
2022-12-24T13:53:47.643Z,4.50
2022-12-24T13:56:37.046Z,4.87
2022-12-24T13:59:39.273Z,4.90
2022-12-24T14:02:25.659Z,7.03
2022-12-24T14:04:53.409Z,8.47
2022-12-24T14:07:21.776Z,10.57
2022-12-24T14:09:51.884Z,11.43
2022-12-24T14:12:43.070Z,10.87
2022-12-24T14:15:30.351Z,9.70
2022-12-24T14:17:58.067Z,10.23
2022-12-24T14:20:25.639Z,8.80
2022-12-24T14:22:53.191Z,10.50
2022-12-24T14:25:24.294Z,10.50
2022-12-24T14:27:59.855Z,10.30
2022-12-24T14:30:31.745Z,12.17
2022-12-24T14:32:59.458Z,14.03
2022-12-24T14:35:29.628Z,13.17
2022-12-24T14:38:19.145Z,12.13
2022-12-24T14:41:09.115Z,12.03
2022-12-24T14:43:56.398Z,10.93
2022-12-24T14:46:45.575Z,11.70
2022-12-24T14:49:32.906Z,11.40
2022-12-24T14:52:45.953Z,12.03
2022-12-24T14:55:29.925Z,15.67
2022-12-24T14:58:17.955Z,13.87
2022-12-24T15:00:45.608Z,19.87
2022-12-24T15:03:15.442Z,21.67
2022-12-24T15:05:43.784Z,16.70
2022-12-24T15:08:15.496Z,23.67
2022-12-24T15:10:47.287Z,16.33
2022-12-24T15:13:36.835Z,16.03
2022-12-24T15:16:05.871Z,18.90
2022-12-24T15:18:34.251Z,19.17
2022-12-24T15:21:04.787Z,17.20
2022-12-24T15:23:33.735Z,16.97
2022-12-24T15:26:21.347Z,18.30
2022-12-24T15:28:48.858Z,12.70
2022-12-24T15:31:21.430Z,11.77
2022-12-24T15:33:49.604Z,15.40
2022-12-24T15:36:18.986Z,16.23
2022-12-24T15:38:51.824Z,13.30
2022-12-24T15:41:26.888Z,18.93
2022-12-24T15:44:06.641Z,18.57
2022-12-24T15:46:39.229Z,16.43
2022-12-24T15:49:18.489Z,18.90
2022-12-24T15:51:56.954Z,15.77
2022-12-24T15:54:30.205Z,14.47
2022-12-24T15:57:03.771Z,13.60
2022-12-24T15:59:42.403Z,11.93
2022-12-24T16:02:34.437Z,12.93
2022-12-24T16:05:25.685Z,12.00
2022-12-24T16:08:18.166Z,11.80
2022-12-24T16:10:58.739Z,11.43
2022-12-24T16:13:40.440Z,13.60
2022-12-24T16:16:36.878Z,11.83
2022-12-24T16:19:12.525Z,10.73
2022-12-24T16:21:49.243Z,15.67
2022-12-24T16:24:24.379Z,13.47
2022-12-24T16:26:58.520Z,11.00
2022-12-24T16:29:31.417Z,9.47
2022-12-24T16:32:03.458Z,10.27
2022-12-24T16:34:39.313Z,8.63
2022-12-24T16:37:11.300Z,8.57
2022-12-24T16:39:38.794Z,10.17
2022-12-24T16:42:39.939Z,11.60
2022-12-24T16:45:16.856Z,11.03
2022-12-24T16:47:53.824Z,11.83
2022-12-24T16:50:27.918Z,10.87
2022-12-24T16:53:00.135Z,8.60
2022-12-24T16:55:32.665Z,9.50
2022-12-24T16:58:03.862Z,11.70
2022-12-24T17:00:40.975Z,10.83
2022-12-24T17:03:17.308Z,9.97
2022-12-24T17:05:54.478Z,10.17
2022-12-24T17:08:25.698Z,10.37
2022-12-24T17:10:59.318Z,11.30
2022-12-24T17:13:31.869Z,11.77
2022-12-24T17:16:09.242Z,10.47
2022-12-24T17:18:40.243Z,10.30
2022-12-24T17:21:45.608Z,9.50
2022-12-24T17:24:25.971Z,9.43
2022-12-24T17:26:59.667Z,9.25
2022-12-24T17:29:33.457Z,9.53
2022-12-24T17:32:05.993Z,8.47
2022-12-24T17:34:38.952Z,8.60
2022-12-24T17:37:14.257Z,9.50
2022-12-24T17:39:50.551Z,8.30
2022-12-24T17:42:30.121Z,9.43
2022-12-24T17:45:06.913Z,9.80
2022-12-24T17:47:53.013Z,11.63
2022-12-24T17:50:35.591Z,14.30
2022-12-24T17:53:12.928Z,10.00
2022-12-24T17:56:01.420Z,9.98
2022-12-24T17:58:45.594Z,8.52
2022-12-24T18:01:23.743Z,10.70
2022-12-24T18:04:01.735Z,10.07
2022-12-24T18:06:49.038Z,10.68
2022-12-24T18:09:25.271Z,9.55
2022-12-24T18:12:04.517Z,11.45
2022-12-24T18:14:41.654Z,10.88
2022-12-24T18:17:23.103Z,8.40
2022-12-24T18:20:16.197Z,8.10
2022-12-24T18:23:01.869Z,8.15
2022-12-24T18:25:44.617Z,7.70
2022-12-24T18:28:28.771Z,7.70
2022-12-24T18:33:57.511Z,10.27
2022-12-24T18:36:41.056Z,10.48
2022-12-24T18:39:18.975Z,6.90
2022-12-24T18:42:06.661Z,7.27
2022-12-24T18:44:45.809Z,7.47
2022-12-24T18:47:31.338Z,7.93
2022-12-24T18:50:13.485Z,9.23
2022-12-24T18:52:53.058Z,10.20
2022-12-24T18:55:32.112Z,10.60
2022-12-24T18:58:14.671Z,10.67
2022-12-24T19:00:53.454Z,11.47
2022-12-24T19:03:42.122Z,16.37
2022-12-24T19:06:22.925Z,17.17
2022-12-24T19:09:01.752Z,12.33
2022-12-24T19:12:02.000Z,15.60
2022-12-24T19:14:46.927Z,11.40
2022-12-24T19:17:26.232Z,11.90
2022-12-24T19:20:09.300Z,12.60
2022-12-24T19:22:51.154Z,11.57
2022-12-24T19:25:27.889Z,12.40
2022-12-24T19:28:06.520Z,15.15
2022-12-24T19:30:45.685Z,17.20
2022-12-24T19:33:25.554Z,16.80
2022-12-24T19:36:03.538Z,14.77
2022-12-24T19:38:39.626Z,12.87
2022-12-24T19:41:26.691Z,12.80
2022-12-24T19:44:09.663Z,13.47
2022-12-24T19:46:42.007Z,17.27
2022-12-24T19:49:20.610Z,16.03
2022-12-24T19:52:02.598Z,15.67
2022-12-24T19:54:41.568Z,13.03
2022-12-24T19:57:14.970Z,13.93
2022-12-24T19:59:57.687Z,16.75
2022-12-24T20:02:40.408Z,15.85
2022-12-24T20:05:22.153Z,17.25
2022-12-24T20:08:03.898Z,14.77
2022-12-24T20:10:47.749Z,19.40
2022-12-24T20:13:27.959Z,17.05
2022-12-24T20:16:07.568Z,21.90
2022-12-24T20:18:49.625Z,24.58
2022-12-24T20:21:27.436Z,21.53
2022-12-24T20:24:05.753Z,18.00
2022-12-24T20:26:44.726Z,22.70
2022-12-24T20:29:14.079Z,20.23
2022-12-24T20:31:54.662Z,16.37
2022-12-24T20:34:30.916Z,16.23
2022-12-24T20:37:06.840Z,19.27
2022-12-24T20:39:47.079Z,18.27
2022-12-24T20:42:28.644Z,17.70
2022-12-24T20:44:57.544Z,19.17
2022-12-24T20:47:35.821Z,16.42
2022-12-24T20:50:16.206Z,16.90
2022-12-24T20:52:59.268Z,15.93
2022-12-24T20:55:37.249Z,19.13
2022-12-24T20:58:13.676Z,17.55
2022-12-24T21:00:54.058Z,22.23
2022-12-24T21:03:23.210Z,17.80
2022-12-24T21:06:05.375Z,19.48
2022-12-24T21:08:42.572Z,18.73
2022-12-24T21:11:48.290Z,19.10
2022-12-24T21:14:21.290Z,17.67
2022-12-24T21:16:59.337Z,20.95
2022-12-24T21:19:42.264Z,17.90
2022-12-24T21:22:19.861Z,17.60
2022-12-24T21:25:02.889Z,17.92
2022-12-24T21:27:37.954Z,17.93
2022-12-24T21:30:15.248Z,13.50
2022-12-24T21:32:44.148Z,18.53
2022-12-24T21:35:20.477Z,19.03
2022-12-24T21:37:59.896Z,20.55
2022-12-24T21:40:37.258Z,21.83
2022-12-24T21:43:10.035Z,22.63
2022-12-24T21:45:47.973Z,23.73
2022-12-24T21:48:39.855Z,23.17
2022-12-24T21:51:26.965Z,20.07
2022-12-24T21:54:18.378Z,22.43
2022-12-24T21:57:10.194Z,24.07
2022-12-24T21:59:43.757Z,20.13
2022-12-24T22:02:16.307Z,23.63
2022-12-24T22:04:44.415Z,21.55
2022-12-24T22:07:39.970Z,28.75
2022-12-24T22:10:28.020Z,25.60
2022-12-24T22:12:55.992Z,19.27
2022-12-24T22:15:23.709Z,19.77
2022-12-24T22:17:51.649Z,23.30
2022-12-24T22:20:19.198Z,20.88
2022-12-24T22:22:48.294Z,20.83
2022-12-24T22:25:16.200Z,22.38
2022-12-24T22:27:44.115Z,20.58
2022-12-24T22:30:12.412Z,18.25
2022-12-24T22:32:40.358Z,23.85
2022-12-24T22:35:09.307Z,23.38
2022-12-24T22:37:36.804Z,20.92
2022-12-24T22:40:04.966Z,19.27
2022-12-24T22:42:34.412Z,19.33
2022-12-24T22:45:03.384Z,19.13
2022-12-24T22:47:32.035Z,19.53
2022-12-24T22:50:00.429Z,18.95
2022-12-24T22:52:31.742Z,21.48
2022-12-24T22:55:03.236Z,20.70
2022-12-24T22:57:31.633Z,18.40
2022-12-24T22:59:59.908Z,18.97
2022-12-24T23:02:30.359Z,21.03
2022-12-24T23:04:58.766Z,20.17
2022-12-24T23:07:26.297Z,20.20
2022-12-24T23:09:54.479Z,20.45
2022-12-24T23:12:41.830Z,20.45
2022-12-24T23:15:09.843Z,21.13
2022-12-24T23:17:37.603Z,20.63
2022-12-24T23:20:05.346Z,19.83
2022-12-24T23:22:33.101Z,19.50
2022-12-24T23:25:00.662Z,16.80
2022-12-24T23:27:28.317Z,16.42
2022-12-24T23:29:56.084Z,14.17
2022-12-24T23:32:24.083Z,13.73
2022-12-24T23:34:51.722Z,14.05
2022-12-24T23:37:19.898Z,14.75
2022-12-24T23:39:47.352Z,15.48
2022-12-24T23:42:15.018Z,14.68
2022-12-24T23:44:42.616Z,16.02
2022-12-24T23:47:10.208Z,15.32
2022-12-24T23:49:37.841Z,14.63
2022-12-24T23:52:05.613Z,16.35
2022-12-24T23:54:33.103Z,17.67
2022-12-24T23:57:00.612Z,16.88
2022-12-24T23:59:28.139Z,16.58
